Time;durP1;ratioP1;P1;durP2;ratioP2;P2;SDS_P1;SDS_P2;PMS_P1;PMS_P2;Temp;Humidity;BMP_temperature;BMP_pressure;BME280_temperature;BME280_humidity;BME280_pressure;Samples;Min_cycle;Max_cycle;Signal;HPM_P1;HPM_P2
2023/09/20 04:31:12;;;;;;;0.00;0.00;;;17.80;84.60;;;;;;5518494;23;20581;-85
2023/09/20 04:33:38;;;;;;;0.10;0.10;;;17.80;84.60;;;;;;4954104;28;20066;-85
2023/09/20 04:36:04;;;;;;;0.00;0.00;;;17.80;84.70;;;;;;4959208;29;20540;-85
2023/09/20 04:38:31;;;;;;;0.03;0.03;;;17.80;84.80;;;;;;4942929;29;20031;-86
2023/09/20 04:40:59;;;;;;;0.03;0.03;;;17.90;84.80;;;;;;4942420;29;20078;-85
2023/09/20 04:43:25;;;;;;;0.00;0.00;;;17.90;84.70;;;;;;4957162;29;20027;-86
2023/09/20 04:45:51;;;;;;;0.00;0.00;;;18.00;84.70;;;;;;4939710;29;20430;-86
2023/09/20 04:48:17;;;;;;;0.00;0.00;;;18.00;84.70;;;;;;4923507;29;20032;-81
2023/09/20 04:50:42;;;;;;;0.00;0.00;;;18.00;85.00;;;;;;4959051;29;20026;-83
2023/09/20 04:53:08;;;;;;;0.00;0.00;;;18.00;85.20;;;;;;4958330;29;20027;-80
2023/09/20 04:55:34;;;;;;;0.10;0.10;;;18.00;85.10;;;;;;4940611;29;20115;-82
2023/09/20 04:58:00;;;;;;;0.00;0.00;;;18.10;85.00;;;;;;4940979;29;20023;-84
2023/09/20 05:00:33;;;;;;;0.00;0.00;;;18.20;85.00;;;;;;4956792;28;20588;-86
2023/09/20 05:02:59;;;;;;;0.10;0.10;;;18.20;84.90;;;;;;4948203;29;20064;-84
2023/09/20 05:05:26;;;;;;;0.10;0.10;;;18.20;84.80;;;;;;4959059;29;20042;-89
2023/09/20 05:07:52;;;;;;;0.03;0.03;;;18.20;84.70;;;;;;4959276;29;20027;-86
2023/09/20 05:10:18;;;;;;;0.00;0.00;;;18.30;84.30;;;;;;4944866;29;20055;-87
2023/09/20 05:12:44;;;;;;;0.00;0.00;;;18.30;84.30;;;;;;4940641;29;20078;-84
2023/09/20 05:15:13;;;;;;;0.00;0.00;;;18.20;84.30;;;;;;4940539;29;20024;-87
2023/09/20 05:17:45;;;;;;;0.00;0.00;;;18.20;84.10;;;;;;4939619;29;20028;-83
2023/09/20 05:20:14;;;;;;;0.00;0.00;;;18.10;84.20;;;;;;4941635;29;20046;-84
2023/09/20 05:22:42;;;;;;;0.10;0.10;;;18.10;84.30;;;;;;4958052;29;20043;-86
2023/09/20 05:25:09;;;;;;;0.10;0.10;;;18.00;84.30;;;;;;4950825;28;20035;-86
2023/09/20 05:27:38;;;;;;;0.10;0.10;;;18.00;84.20;;;;;;4941523;29;20038;-86
2023/09/20 05:30:05;;;;;;;0.10;0.10;;;18.00;84.10;;;;;;4959352;29;20041;-88
2023/09/20 05:32:31;;;;;;;0.00;0.00;;;18.00;84.00;;;;;;4939243;29;20039;-85
2023/09/20 05:34:56;;;;;;;0.00;0.00;;;18.00;84.00;;;;;;4942205;29;20030;-85
2023/09/20 05:37:22;;;;;;;0.00;0.00;;;18.10;83.90;;;;;;4959106;29;20505;-86
2023/09/20 05:39:49;;;;;;;0.00;0.00;;;18.00;83.80;;;;;;4959413;29;20445;-85
2023/09/20 05:42:15;;;;;;;0.00;0.00;;;18.00;83.90;;;;;;4947699;29;20110;-84
2023/09/20 05:44:41;;;;;;;0.10;0.10;;;18.00;83.90;;;;;;4939725;29;20031;-86
2023/09/20 05:47:09;;;;;;;0.00;0.00;;;18.00;84.10;;;;;;4940411;29;20047;-83
2023/09/20 05:49:35;;;;;;;0.00;0.00;;;18.00;84.30;;;;;;4957737;29;20508;-84
2023/09/20 05:52:06;;;;;;;0.00;0.00;;;18.00;84.30;;;;;;4958800;29;20551;-84
2023/09/20 05:54:32;;;;;;;0.10;0.10;;;18.00;84.50;;;;;;4940878;29;20038;-84
2023/09/20 05:56:59;;;;;;;0.00;0.00;;;18.00;84.60;;;;;;4938760;29;20094;-84
2023/09/20 05:59:26;;;;;;;0.00;0.00;;;18.00;84.80;;;;;;4922434;29;20502;-84
2023/09/20 06:01:52;;;;;;;0.00;0.00;;;18.00;84.90;;;;;;4939383;29;20177;-84
2023/09/20 06:04:19;;;;;;;0.05;0.05;;;18.00;85.10;;;;;;4944679;29;20064;-84
2023/09/20 06:06:45;;;;;;;0.00;0.00;;;18.00;85.30;;;;;;4939357;29;20078;-84
2023/09/20 06:09:10;;;;;;;0.00;0.00;;;18.00;85.50;;;;;;4922328;29;20087;-83
2023/09/20 06:11:36;;;;;;;0.08;0.08;;;18.00;85.50;;;;;;4939170;29;20024;-83
2023/09/20 06:14:04;;;;;;;0.10;0.10;;;18.00;85.50;;;;;;4942155;28;20092;-83
2023/09/20 06:16:30;;;;;;;0.10;0.10;;;18.00;85.50;;;;;;4956166;28;20529;-83
2023/09/20 06:18:56;;;;;;;0.00;0.00;;;18.00;85.50;;;;;;4939185;29;20035;-84
2023/09/20 06:21:23;;;;;;;0.00;0.00;;;18.10;85.50;;;;;;4936809;29;20031;-84
2023/09/20 06:23:49;;;;;;;0.10;0.10;;;18.10;85.40;;;;;;4921895;29;20103;-83
2023/09/20 06:26:15;;;;;;;0.10;0.10;;;18.20;85.30;;;;;;4943673;29;20036;-85
2023/09/20 06:28:43;;;;;;;0.10;0.10;;;18.20;85.10;;;;;;4940895;29;20405;-85
2023/09/20 06:31:14;;;;;;;0.10;0.10;;;18.30;85.00;;;;;;4921585;29;20413;-84
2023/09/20 06:33:40;;;;;;;0.00;0.00;;;18.30;84.90;;;;;;4946051;29;20105;-84
2023/09/20 06:36:06;;;;;;;0.00;0.00;;;18.40;84.60;;;;;;4957485;29;20086;-84
2023/09/20 06:38:34;;;;;;;0.00;0.00;;;18.50;84.20;;;;;;4957327;29;20035;-83
2023/09/20 06:41:00;;;;;;;0.10;0.10;;;18.50;84.20;;;;;;4938195;29;20029;-83
2023/09/20 06:43:26;;;;;;;0.00;0.00;;;18.50;84.20;;;;;;4938650;29;20476;-83
2023/09/20 06:45:53;;;;;;;0.00;0.00;;;18.50;84.00;;;;;;4937397;29;20103;-84
2023/09/20 06:48:22;;;;;;;0.00;0.00;;;18.60;84.00;;;;;;4938732;29;20848;-83
2023/09/20 06:50:52;;;;;;;0.10;0.10;;;18.60;84.10;;;;;;4938532;29;20058;-83
2023/09/20 06:53:18;;;;;;;0.00;0.00;;;18.60;83.90;;;;;;4938532;29;20031;-83
2023/09/20 06:55:46;;;;;;;0.10;0.10;;;18.70;83.80;;;;;;4938662;29;20028;-84
2023/09/20 06:58:13;;;;;;;0.00;0.00;;;18.70;83.70;;;;;;4938328;29;20032;-83
2023/09/20 07:00:39;;;;;;;0.00;0.00;;;18.80;83.60;;;;;;4938393;29;20027;-84
2023/09/20 07:03:05;;;;;;;0.10;0.10;;;18.80;83.40;;;;;;4924657;29;20471;-84
2023/09/20 07:05:31;;;;;;;0.10;0.10;;;18.80;83.30;;;;;;4940504;29;20482;-82
2023/09/20 07:07:58;;;;;;;0.03;0.03;;;18.90;83.00;;;;;;4946198;29;20024;-83
2023/09/20 07:10:25;;;;;;;0.10;0.10;;;19.00;82.80;;;;;;4937760;29;20077;-84
2023/09/20 07:12:53;;;;;;;0.10;0.10;;;19.00;82.40;;;;;;4938399;29;20043;-83
2023/09/20 07:15:20;;;;;;;0.10;0.10;;;19.00;82.40;;;;;;4938283;29;20042;-83
2023/09/20 07:17:50;;;;;;;0.20;0.20;;;19.10;82.50;;;;;;4951721;29;20561;-82
2023/09/20 07:20:18;;;;;;;0.10;0.10;;;19.60;81.50;;;;;;4957484;29;20493;-83
2023/09/20 07:22:51;;;;;;;0.10;0.10;;;20.20;79.90;;;;;;4952505;29;20070;-85
2023/09/20 07:25:19;;;;;;;0.00;0.00;;;20.60;78.30;;;;;;4931802;29;20086;-83
2023/09/20 07:27:46;;;;;;;0.00;0.00;;;20.80;77.40;;;;;;4935903;29;20115;-85
2023/09/20 07:30:19;;;;;;;0.00;0.00;;;20.40;78.00;;;;;;4937964;29;20024;-83
2023/09/20 07:32:55;;;;;;;0.00;0.00;;;19.90;78.90;;;;;;4920990;29;20034;-83
2023/09/20 07:35:26;;;;;;;0.10;0.10;;;19.80;79.50;;;;;;4935327;29;20028;-83
2023/09/20 07:37:57;;;;;;;0.10;0.10;;;19.70;80.10;;;;;;4936338;29;20024;-82
2023/09/20 07:40:35;;;;;;;0.00;0.00;;;19.60;80.60;;;;;;4940010;29;20055;-83
2023/09/20 07:43:06;;;;;;;0.10;0.10;;;19.50;80.80;;;;;;4951983;29;20075;-82
2023/09/20 07:45:38;;;;;;;0.10;0.10;;;19.50;80.90;;;;;;4937880;29;20445;-85
2023/09/20 07:48:12;;;;;;;0.00;0.00;;;19.50;80.90;;;;;;4937735;29;20028;-84
2023/09/20 07:50:49;;;;;;;0.00;0.00;;;19.50;81.00;;;;;;4937996;29;20043;-83
2023/09/20 07:53:15;;;;;;;0.00;0.00;;;19.60;81.20;;;;;;4938070;29;20028;-84
2023/09/20 07:55:46;;;;;;;0.10;0.10;;;19.70;81.00;;;;;;4937724;29;20040;-82
2023/09/20 07:58:15;;;;;;;0.10;0.10;;;19.80;80.40;;;;;;4937675;29;20032;-83
2023/09/20 08:00:41;;;;;;;0.00;0.00;;;19.80;80.00;;;;;;4921151;29;20039;-82
2023/09/20 08:03:07;;;;;;;0.00;0.00;;;19.80;80.10;;;;;;4939186;29;20032;-83
2023/09/20 08:05:33;;;;;;;0.00;0.00;;;20.00;79.50;;;;;;4944537;29;20082;-82
2023/09/20 08:07:59;;;;;;;0.00;0.00;;;20.00;79.90;;;;;;4937788;29;20039;-83
2023/09/20 08:10:24;;;;;;;0.10;0.10;;;20.30;79.40;;;;;;4937844;29;20106;-83
2023/09/20 08:12:51;;;;;;;0.10;0.10;;;20.40;78.60;;;;;;4937858;29;20035;-82
2023/09/20 08:15:17;;;;;;;0.00;0.00;;;20.50;78.30;;;;;;4937888;29;20510;-84
2023/09/20 08:20:27;;;;;;;0.00;0.00;;;20.70;77.70;;;;;;4948658;28;20078;-83
2023/09/20 09:01:36;;;;;;;0.03;0.03;;;20.70;75.50;;;;;;4963886;28;20038;-83
2023/09/20 09:04:03;;;;;;;0.05;0.05;;;20.80;75.40;;;;;;4950885;28;20404;-84
2023/09/20 09:06:30;;;;;;;0.10;0.10;;;20.80;75.00;;;;;;4951581;28;20042;-84
2023/09/20 09:08:56;;;;;;;0.00;0.00;;;20.90;74.70;;;;;;4960054;28;20156;-85
2023/09/20 09:11:24;;;;;;;0.10;0.08;;;21.00;74.50;;;;;;4968693;28;20111;-85
2023/09/20 09:13:51;;;;;;;0.00;0.00;;;20.80;74.40;;;;;;4967982;28;20016;-85
2023/09/20 09:16:19;;;;;;;0.00;0.00;;;20.80;74.80;;;;;;4964490;28;20031;-85
2023/09/20 09:18:44;;;;;;;0.10;0.10;;;20.80;74.20;;;;;;4964044;28;20076;-84
2023/09/20 09:21:14;;;;;;;0.03;0.03;;;20.80;74.30;;;;;;4951083;28;20039;-84
2023/09/20 09:23:44;;;;;;;0.00;0.00;;;20.90;74.30;;;;;;4949625;28;20393;-85
2023/09/20 09:26:11;;;;;;;0.00;0.00;;;21.00;74.60;;;;;;4967546;28;20037;-83
2023/09/20 09:28:45;;;;;;;0.10;0.10;;;21.10;73.60;;;;;;4968875;28;20034;-84
2023/09/20 09:31:12;;;;;;;0.10;0.10;;;21.30;73.60;;;;;;4948549;28;20114;-84
2023/09/20 09:33:39;;;;;;;0.08;0.08;;;21.40;73.40;;;;;;4950114;28;20111;-84
2023/09/20 09:36:05;;;;;;;0.10;0.10;;;21.50;72.60;;;;;;4960781;28;20043;-85
2023/09/20 09:38:35;;;;;;;0.08;0.08;;;21.60;72.80;;;;;;4968829;28;20482;-84
2023/09/20 09:41:01;;;;;;;0.00;0.00;;;21.60;73.00;;;;;;4948550;28;20035;-84
2023/09/20 09:43:31;;;;;;;0.05;0.05;;;21.50;72.20;;;;;;4961818;28;20030;-85
2023/09/20 09:46:08;;;;;;;2.28;2.17;;;21.30;72.70;;;;;;4957913;29;20031;-84
2023/09/20 09:48:39;;;;;;;0.45;0.40;;;21.20;73.00;;;;;;4958459;29;20118;-84
2023/09/20 09:51:09;;;;;;;0.10;0.10;;;21.40;73.20;;;;;;4957823;29;20030;-86
2023/09/20 09:53:39;;;;;;;0.00;0.00;;;21.70;72.10;;;;;;4940178;29;20055;-84
2023/09/20 09:56:05;;;;;;;0.00;0.00;;;21.70;71.70;;;;;;4958218;29;20027;-84
2023/09/20 09:58:32;;;;;;;0.10;0.10;;;21.80;71.60;;;;;;4941130;29;20031;-85
2023/09/20 10:00:58;;;;;;;0.10;0.10;;;21.90;71.70;;;;;;4954766;29;20094;-87
2023/09/20 10:03:32;;;;;;;0.00;0.00;;;22.00;71.20;;;;;;4957632;29;20110;-86
2023/09/20 10:06:08;;;;;;;0.00;0.00;;;22.20;70.80;;;;;;4958387;29;20023;-83
2023/09/20 10:08:41;;;;;;;0.00;0.00;;;22.30;70.00;;;;;;4944047;29;20107;-84
2023/09/20 10:11:09;;;;;;;0.00;0.00;;;22.30;69.50;;;;;;4938722;29;20087;-82
2023/09/20 10:13:37;;;;;;;0.08;0.08;;;22.10;70.00;;;;;;4921964;29;20059;-85
2023/09/20 10:16:05;;;;;;;0.00;0.00;;;22.10;69.60;;;;;;4944893;28;20030;-83
2023/09/20 10:18:53;;;;;;;0.00;0.00;;;22.20;69.00;;;;;;4949466;29;20035;-84
2023/09/20 10:21:23;;;;;;;0.00;0.00;;;22.20;68.70;;;;;;4938780;29;20031;-83
2023/09/20 10:24:00;;;;;;;0.10;0.10;;;22.10;68.70;;;;;;4938899;29;20028;-82
2023/09/20 10:26:26;;;;;;;0.10;0.10;;;22.30;69.00;;;;;;4922009;29;20028;-83
2023/09/20 10:29:24;;;;;;;0.05;0.05;;;22.40;69.10;;;;;;4949643;28;20047;-82
2023/09/20 10:31:52;;;;;;;0.10;0.10;;;22.40;69.10;;;;;;4934853;29;20152;-82
2023/09/20 10:34:21;;;;;;;0.05;0.05;;;22.60;69.40;;;;;;4958012;29;20020;-83
2023/09/20 10:36:54;;;;;;;0.10;0.10;;;22.80;68.70;;;;;;4936107;29;20040;-84
2023/09/20 10:39:19;;;;;;;;;;;22.70;68.50;;;;;;4937790;29;20095;-82
2023/09/20 10:41:46;;;;;;;0.10;0.10;;;22.70;67.20;;;;;;4944908;29;19911;-82
2023/09/20 10:44:26;;;;;;;0.00;0.00;;;22.80;67.20;;;;;;4938017;29;20106;-83
2023/09/20 10:46:53;;;;;;;0.00;0.00;;;22.40;67.40;;;;;;4938345;29;20020;-83
2023/09/20 10:49:39;;;;;;;0.00;0.00;;;22.30;67.40;;;;;;4938629;29;20034;-84
2023/09/20 10:52:05;;;;;;;0.03;0.03;;;22.40;67.40;;;;;;4938371;29;20058;-84
2023/09/20 10:54:36;;;;;;;0.00;0.00;;;22.50;66.70;;;;;;4938321;29;20032;-84
2023/09/20 10:57:06;;;;;;;0.00;0.00;;;22.60;66.20;;;;;;4937157;29;20451;-83
2023/09/20 10:59:32;;;;;;;0.05;0.05;;;22.50;66.40;;;;;;4934472;29;20410;-82
2023/09/20 11:02:08;;;;;;;0.00;0.00;;;22.50;66.60;;;;;;4921352;29;20035;-82
2023/09/20 11:04:35;;;;;;;0.10;0.10;;;22.40;66.60;;;;;;4935548;29;20118;-82
2023/09/20 11:07:02;;;;;;;0.00;0.00;;;22.30;66.80;;;;;;4937466;29;20023;-83
2023/09/20 11:09:33;;;;;;;0.10;0.10;;;22.20;67.90;;;;;;4952063;29;20038;-84
2023/09/20 11:12:11;;;;;;;0.00;0.00;;;22.30;67.30;;;;;;4957563;28;20047;-84
2023/09/20 11:14:40;;;;;;;0.00;0.00;;;22.60;67.20;;;;;;4937175;29;20031;-83
2023/09/20 11:17:07;;;;;;;0.00;0.00;;;23.00;66.00;;;;;;4920993;29;20028;-84
2023/09/20 11:19:34;;;;;;;0.03;0.03;;;23.10;63.90;;;;;;4938306;29;20035;-83
2023/09/20 11:22:00;;;;;;;0.10;0.10;;;23.30;62.50;;;;;;4938178;29;20027;-81
2023/09/20 11:24:26;;;;;;;0.15;0.10;;;23.40;62.80;;;;;;4941877;29;20110;-83
2023/09/20 11:26:56;;;;;;;0.00;0.00;;;23.60;62.20;;;;;;4957187;29;20024;-83
2023/09/20 11:29:23;;;;;;;0.00;0.00;;;23.80;62.30;;;;;;4957470;29;20023;-83
2023/09/20 11:31:50;;;;;;;0.10;0.10;;;23.70;60.90;;;;;;4937187;29;20417;-83
2023/09/20 11:34:19;;;;;;;0.00;0.00;;;23.80;61.20;;;;;;4949939;29;20023;-83
2023/09/20 11:36:46;;;;;;;0.00;0.00;;;23.60;61.40;;;;;;4939698;29;20510;-83
2023/09/20 11:39:14;;;;;;;0.05;0.05;;;23.30;61.20;;;;;;4945576;29;20032;-84
2023/09/20 11:41:45;;;;;;;0.00;0.00;;;23.30;61.50;;;;;;4940180;29;20035;-83
2023/09/20 11:44:12;;;;;;;0.00;0.00;;;23.50;62.30;;;;;;4957292;29;20054;-83
2023/09/20 11:46:38;;;;;;;0.00;0.00;;;23.40;61.50;;;;;;4943993;29;20477;-84
2023/09/20 11:49:06;;;;;;;0.10;0.10;;;23.40;61.80;;;;;;4937019;29;20036;-83
2023/09/20 11:51:34;;;;;;;0.00;0.00;;;23.40;61.80;;;;;;4921193;29;20028;-83
2023/09/20 11:54:03;;;;;;;0.00;0.00;;;23.80;62.20;;;;;;4937795;29;20035;-83
2023/09/20 11:56:32;;;;;;;0.00;0.00;;;23.60;61.50;;;;;;4923495;29;20123;-84
2023/09/20 11:59:01;;;;;;;0.00;0.00;;;23.40;62.30;;;;;;4924817;29;20058;-82
2023/09/20 12:01:30;;;;;;;0.00;0.00;;;23.10;63.20;;;;;;4941224;29;20031;-83
2023/09/20 12:03:59;;;;;;;0.00;0.00;;;22.90;64.40;;;;;;4950570;29;20106;-84
2023/09/20 12:06:25;;;;;;;0.08;0.08;;;22.80;64.40;;;;;;4951272;29;20023;-84
2023/09/20 12:08:54;;;;;;;0.00;0.00;;;22.90;64.70;;;;;;4924377;29;20035;-84
2023/09/20 12:11:20;;;;;;;0.10;0.10;;;23.00;63.70;;;;;;4924400;29;20035;-83
2023/09/20 12:13:47;;;;;;;0.00;0.00;;;22.90;64.40;;;;;;4939308;29;20027;-84
2023/09/20 12:16:14;;;;;;;0.00;0.00;;;23.00;63.80;;;;;;4940193;29;20028;-83
2023/09/20 12:18:41;;;;;;;0.00;0.00;;;23.10;63.30;;;;;;4933211;28;20039;-83
2023/09/20 12:21:08;;;;;;;0.00;0.00;;;22.90;63.00;;;;;;4946557;29;20074;-84
2023/09/20 12:23:40;;;;;;;0.00;0.00;;;22.70;62.30;;;;;;4945152;29;20045;-83
2023/09/20 12:26:07;;;;;;;0.00;0.00;;;22.50;63.40;;;;;;4960239;29;20034;-83
2023/09/20 12:28:38;;;;;;;0.00;0.00;;;22.50;64.70;;;;;;4942669;29;20478;-82
2023/09/20 12:31:04;;;;;;;0.00;0.00;;;22.50;64.80;;;;;;4960004;29;20387;-83
2023/09/20 12:33:30;;;;;;;0.00;0.00;;;22.80;64.80;;;;;;4938671;29;20127;-84
2023/09/20 12:35:57;;;;;;;0.10;0.10;;;23.10;64.50;;;;;;4941223;29;20541;-82
2023/09/20 12:38:23;;;;;;;0.00;0.00;;;23.10;64.00;;;;;;4939763;29;20072;-82
2023/09/20 12:40:49;;;;;;;0.10;0.10;;;23.10;63.90;;;;;;4950282;29;20046;-82
2023/09/20 12:43:15;;;;;;;0.00;0.00;;;23.20;63.10;;;;;;4942958;29;20054;-82
2023/09/20 12:45:43;;;;;;;0.00;0.00;;;23.30;63.40;;;;;;4942505;29;20034;-82
2023/09/20 12:48:09;;;;;;;0.00;0.00;;;23.20;63.80;;;;;;4942191;29;20027;-81
2023/09/20 12:50:36;;;;;;;0.00;0.00;;;23.10;64.00;;;;;;4942546;29;20189;-82
2023/09/20 12:53:05;;;;;;;0.00;0.00;;;23.00;64.10;;;;;;4960002;29;20019;-81
2023/09/20 12:55:31;;;;;;;0.00;0.00;;;23.00;64.40;;;;;;4942571;29;20031;-81
2023/09/20 12:57:57;;;;;;;0.00;0.00;;;22.80;63.70;;;;;;4939550;29;20032;-80
2023/09/20 13:00:23;;;;;;;0.00;0.00;;;22.80;64.30;;;;;;4949671;29;20454;-81
2023/09/20 13:02:49;;;;;;;0.00;0.00;;;22.80;63.80;;;;;;4938416;29;20530;-82
2023/09/20 13:05:15;;;;;;;0.03;0.03;;;22.80;63.60;;;;;;4959745;29;20023;-82
2023/09/20 13:07:40;;;;;;;0.10;0.10;;;22.80;63.00;;;;;;4956686;28;20035;-82
2023/09/20 13:10:13;;;;;;;0.00;0.00;;;22.90;63.20;;;;;;4959095;29;20031;-81
2023/09/20 13:12:40;;;;;;;0.10;0.10;;;23.00;62.80;;;;;;4958943;29;20019;-81
2023/09/20 13:15:12;;;;;;;0.00;0.00;;;23.30;62.10;;;;;;4956242;29;20027;-82
2023/09/20 13:17:44;;;;;;;0.10;0.10;;;23.40;60.00;;;;;;4956556;29;20776;-82
2023/09/20 13:20:12;;;;;;;0.00;0.00;;;23.60;59.60;;;;;;4941758;29;20035;-81
2023/09/20 13:22:39;;;;;;;0.10;0.10;;;23.80;59.60;;;;;;4955802;29;20039;-83
2023/09/20 13:25:08;;;;;;;0.00;0.00;;;23.90;59.10;;;;;;4956919;29;20114;-81
2023/09/20 13:27:33;;;;;;;0.10;0.10;;;24.10;58.60;;;;;;4958451;29;20019;-82
2023/09/20 13:29:59;;;;;;;0.00;0.00;;;23.80;57.80;;;;;;4958703;29;20019;-82
2023/09/20 13:32:26;;;;;;;0.00;0.00;;;23.80;58.10;;;;;;4957099;29;20066;-82
2023/09/20 13:34:53;;;;;;;0.00;0.00;;;23.30;57.10;;;;;;4958512;29;20018;-82
2023/09/20 13:37:19;;;;;;;0.00;0.00;;;23.30;58.50;;;;;;4957382;29;20019;-82
2023/09/20 13:39:45;;;;;;;0.00;0.00;;;23.20;58.70;;;;;;4956328;29;20386;-82
2023/09/20 13:42:10;;;;;;;0.00;0.00;;;23.10;59.50;;;;;;4955352;28;20090;-83
2023/09/20 13:44:40;;;;;;;0.00;0.00;;;23.10;59.80;;;;;;4938738;29;20027;-83
2023/09/20 13:47:06;;;;;;;0.00;0.00;;;23.10;59.30;;;;;;4939645;29;20051;-82
2023/09/20 13:49:37;;;;;;;0.10;0.10;;;23.30;59.20;;;;;;4953756;29;20059;-82
2023/09/20 13:52:05;;;;;;;0.10;0.10;;;23.40;59.10;;;;;;4945830;29;20023;-83
2023/09/20 13:54:32;;;;;;;0.00;0.00;;;23.50;58.60;;;;;;4940879;29;20482;-82
2023/09/20 13:56:57;;;;;;;0.00;0.00;;;23.50;59.00;;;;;;4956780;29;20031;-82
2023/09/20 13:59:24;;;;;;;0.00;0.00;;;23.70;58.90;;;;;;4958474;29;20038;-83
2023/09/20 14:01:51;;;;;;;0.00;0.00;;;23.70;58.90;;;;;;4941003;29;20066;-82
2023/09/20 14:04:18;;;;;;;0.05;0.05;;;23.50;59.20;;;;;;4937624;29;20111;-81
2023/09/20 14:06:45;;;;;;;0.00;0.00;;;23.30;59.70;;;;;;4947739;29;20179;-82
2023/09/20 14:09:13;;;;;;;0.03;0.03;;;23.50;60.20;;;;;;4958506;29;20028;-82
2023/09/20 14:11:39;;;;;;;0.00;0.00;;;23.60;58.40;;;;;;4948553;29;20028;-82
2023/09/20 14:14:05;;;;;;;0.00;0.00;;;23.70;58.30;;;;;;4939322;29;20034;-82
2023/09/20 14:16:30;;;;;;;0.00;0.00;;;23.70;58.20;;;;;;4922245;29;20031;-82
2023/09/20 14:18:56;;;;;;;0.05;0.05;;;23.50;58.80;;;;;;4941625;29;20043;-82
2023/09/20 14:21:22;;;;;;;0.10;0.10;;;23.30;56.50;;;;;;4955068;28;20039;-83
2023/09/20 14:23:47;;;;;;;0.00;0.00;;;23.20;55.70;;;;;;4940800;28;20031;-82
2023/09/20 14:26:14;;;;;;;0.08;0.03;;;23.20;56.40;;;;;;4940402;28;20055;-82
2023/09/20 14:28:41;;;;;;;0.10;0.10;;;23.10;56.30;;;;;;4952474;29;20030;-82
2023/09/20 14:31:17;;;;;;;0.00;0.00;;;23.10;56.40;;;;;;4957732;29;20093;-83
2023/09/20 14:33:44;;;;;;;0.00;0.00;;;23.20;56.60;;;;;;4935299;29;20031;-82
2023/09/20 14:36:11;;;;;;;0.10;0.10;;;23.20;57.00;;;;;;4940940;29;20031;-82
2023/09/20 14:38:38;;;;;;;0.00;0.00;;;23.10;57.30;;;;;;4946456;28;20034;-82
2023/09/20 14:41:05;;;;;;;0.00;0.00;;;22.90;57.70;;;;;;4929523;29;20475;-84
2023/09/20 14:43:31;;;;;;;0.00;0.00;;;22.90;58.50;;;;;;4950466;29;20027;-83
2023/09/20 14:45:57;;;;;;;0.00;0.00;;;22.80;59.10;;;;;;4957631;29;20659;-83
2023/09/20 14:48:23;;;;;;;0.05;0.05;;;22.90;59.80;;;;;;4949368;29;20106;-83
2023/09/20 14:50:49;;;;;;;0.00;0.00;;;22.90;60.00;;;;;;4938498;28;20059;-83
2023/09/20 14:53:18;;;;;;;0.00;0.00;;;22.80;60.20;;;;;;4938777;29;20675;-83
2023/09/20 14:55:45;;;;;;;0.00;0.00;;;22.90;60.60;;;;;;4938451;29;20106;-84
2023/09/20 14:58:11;;;;;;;0.00;0.00;;;23.00;60.10;;;;;;4946786;29;20023;-82
2023/09/20 15:00:38;;;;;;;0.00;0.00;;;23.00;60.50;;;;;;4940268;29;20081;-83
2023/09/20 15:03:04;;;;;;;0.00;0.00;;;22.70;61.40;;;;;;4952080;29;20031;-82
2023/09/20 15:05:37;;;;;;;0.00;0.00;;;22.80;61.10;;;;;;4947344;28;20032;-84
2023/09/20 15:08:03;;;;;;;0.00;0.00;;;22.80;61.20;;;;;;4937213;29;20122;-83
2023/09/20 15:10:29;;;;;;;0.00;0.00;;;22.80;61.60;;;;;;4940057;29;20582;-82
2023/09/20 15:13:01;;;;;;;0.00;0.00;;;22.80;61.00;;;;;;4946938;29;20043;-84
2023/09/20 15:15:34;;;;;;;0.00;0.00;;;22.70;61.40;;;;;;4949666;29;20090;-82
2023/09/20 15:18:00;;;;;;;0.00;0.00;;;22.60;61.00;;;;;;4959713;28;20110;-82
2023/09/20 15:20:28;;;;;;;0.00;0.00;;;22.60;60.60;;;;;;4965837;28;20023;-81
2023/09/20 15:22:57;;;;;;;0.00;0.00;;;22.60;60.50;;;;;;4963673;28;20030;-82
2023/09/20 15:25:25;;;;;;;0.08;0.08;;;22.50;59.80;;;;;;4962814;28;20019;-84
2023/09/20 15:27:50;;;;;;;0.10;0.10;;;22.50;60.60;;;;;;4965620;28;20046;-83
2023/09/20 15:30:16;;;;;;;0.00;0.00;;;22.50;60.80;;;;;;4967502;28;20019;-83
2023/09/20 15:32:44;;;;;;;0.00;0.00;;;22.50;60.30;;;;;;4950574;28;20031;-81
2023/09/20 15:35:09;;;;;;;0.00;0.00;;;22.40;61.20;;;;;;4968758;28;20030;-81
2023/09/20 15:37:43;;;;;;;0.00;0.00;;;22.30;61.60;;;;;;4962834;28;20035;-83
2023/09/20 15:40:10;;;;;;;0.00;0.00;;;22.30;62.00;;;;;;4946345;29;20167;-84
2023/09/20 15:42:35;;;;;;;0.00;0.00;;;22.10;62.00;;;;;;4961154;29;20034;-83
2023/09/20 15:45:01;;;;;;;0.10;0.10;;;21.90;62.10;;;;;;4939949;29;20506;-83
2023/09/20 15:47:27;;;;;;;0.00;0.00;;;22.00;62.10;;;;;;4941987;29;20091;-83
2023/09/20 15:49:55;;;;;;;0.00;0.00;;;22.00;62.30;;;;;;4942009;29;20494;-83
2023/09/20 15:52:20;;;;;;;0.00;0.00;;;21.90;62.70;;;;;;4924677;29;20035;-81
2023/09/20 15:54:46;;;;;;;0.00;0.00;;;21.90;63.20;;;;;;4943888;29;20116;-81
2023/09/20 15:57:12;;;;;;;0.00;0.00;;;21.80;63.50;;;;;;4956665;29;20027;-82
2023/09/20 15:59:41;;;;;;;0.00;0.00;;;21.80;64.00;;;;;;4957264;29;20038;-83
2023/09/20 16:02:08;;;;;;;0.00;0.00;;;21.70;64.50;;;;;;4939496;29;20051;-82
2023/09/20 16:04:35;;;;;;;0.00;0.00;;;21.70;64.90;;;;;;4939353;29;20033;-87
2023/09/20 16:07:06;;;;;;;0.00;0.00;;;21.70;65.30;;;;;;4951544;29;20038;-82
2023/09/20 16:09:32;;;;;;;0.05;0.05;;;21.70;65.90;;;;;;4940857;29;20023;-85
2023/09/20 16:11:59;;;;;;;0.00;0.00;;;21.60;66.30;;;;;;4953856;29;20054;-81
2023/09/20 16:14:28;;;;;;;0.08;0.08;;;21.50;66.50;;;;;;4934365;28;20027;-81
2023/09/20 16:16:59;;;;;;;0.00;0.00;;;21.60;66.80;;;;;;4942889;28;20032;-82
2023/09/20 16:19:25;;;;;;;0.00;0.00;;;21.60;67.10;;;;;;4961665;28;20070;-81
2023/09/20 16:21:51;;;;;;;0.00;0.00;;;21.70;66.80;;;;;;4963187;28;20478;-81
2023/09/20 16:24:18;;;;;;;0.00;0.00;;;21.60;66.90;;;;;;4961115;28;20386;-82
2023/09/20 16:26:43;;;;;;;0.00;0.00;;;21.60;67.10;;;;;;4944004;28;20035;-80
2023/09/20 16:29:10;;;;;;;0.00;0.00;;;21.50;67.00;;;;;;4962179;28;20055;-81
2023/09/20 16:31:36;;;;;;;0.00;0.00;;;21.40;67.60;;;;;;4963210;28;20035;-81
2023/09/20 16:34:02;;;;;;;0.00;0.00;;;21.50;67.40;;;;;;4962993;28;20024;-81
2023/09/20 16:36:28;;;;;;;0.00;0.00;;;21.50;67.40;;;;;;4947395;28;20039;-81
2023/09/20 16:38:53;;;;;;;0.00;0.00;;;21.40;67.90;;;;;;4958568;29;20102;-82
2023/09/20 16:41:19;;;;;;;0.08;0.08;;;21.40;67.80;;;;;;4957178;28;20046;-81
2023/09/20 16:43:45;;;;;;;0.08;0.05;;;21.50;68.20;;;;;;4958426;29;20180;-85
2023/09/20 16:46:11;;;;;;;0.00;0.00;;;21.40;69.00;;;;;;4940118;29;20070;-82
2023/09/20 16:48:36;;;;;;;0.00;0.00;;;21.40;69.60;;;;;;4958613;29;20019;-83
2023/09/20 16:51:03;;;;;;;0.00;0.00;;;21.30;70.80;;;;;;4958992;29;20023;-81
2023/09/20 16:53:30;;;;;;;0.10;0.10;;;21.10;72.30;;;;;;4958935;29;20026;-80
2023/09/20 16:55:55;;;;;;;0.00;0.00;;;20.80;73.70;;;;;;4956433;29;20054;-82
2023/09/20 16:58:21;;;;;;;0.00;0.00;;;20.80;74.80;;;;;;4958432;29;20027;-83
2023/09/20 17:00:47;;;;;;;0.00;0.00;;;20.60;75.70;;;;;;4940454;29;20023;-79
2023/09/20 17:03:13;;;;;;;0.00;0.00;;;20.60;76.40;;;;;;4957696;29;20087;-79
2023/09/20 17:05:41;;;;;;;0.05;0.05;;;20.50;77.00;;;;;;4939344;29;20512;-80
2023/09/20 17:08:08;;;;;;;0.00;0.00;;;20.40;77.70;;;;;;4948765;28;20036;-80
2023/09/20 17:10:34;;;;;;;0.00;0.00;;;20.30;78.50;;;;;;4957922;29;20011;-80
2023/09/20 17:13:00;;;;;;;0.00;0.00;;;20.30;78.80;;;;;;4973852;28;20032;-81
2023/09/20 17:15:28;;;;;;;0.00;0.00;;;20.30;79.60;;;;;;4938979;29;20060;-82
2023/09/20 17:17:54;;;;;;;0.00;0.00;;;20.20;80.30;;;;;;4953741;29;20019;-81
2023/09/20 17:20:20;;;;;;;0.00;0.00;;;20.00;81.10;;;;;;4949067;29;20024;-79
2023/09/20 17:22:46;;;;;;;0.00;0.00;;;20.00;81.90;;;;;;4951719;29;20058;-82
2023/09/20 17:25:13;;;;;;;0.00;0.00;;;19.90;82.40;;;;;;4943701;29;20035;-81
2023/09/20 17:27:42;;;;;;;0.03;0.03;;;19.80;82.60;;;;;;4950196;29;20087;-82
2023/09/20 17:30:12;;;;;;;0.00;0.00;;;19.80;83.10;;;;;;4939966;29;20028;-79
2023/09/20 17:32:40;;;;;;;0.00;0.00;;;19.80;83.70;;;;;;4939473;29;20402;-82
2023/09/20 17:35:09;;;;;;;0.00;0.00;;;19.70;83.90;;;;;;4955836;29;20071;-82
2023/09/20 17:37:35;;;;;;;0.10;0.10;;;19.60;84.00;;;;;;4941129;29;20523;-81
2023/09/20 17:40:01;;;;;;;0.00;0.00;;;19.40;84.50;;;;;;4936678;29;20043;-80
2023/09/20 17:42:27;;;;;;;0.00;0.00;;;19.30;84.80;;;;;;4958795;29;20031;-81
2023/09/20 17:44:53;;;;;;;0.00;0.00;;;19.10;85.30;;;;;;4960075;29;20043;-86
2023/09/20 17:47:18;;;;;;;0.03;0.00;;;19.10;85.30;;;;;;4960136;29;20016;-84
2023/09/20 17:49:44;;;;;;;0.00;0.00;;;19.00;85.70;;;;;;4944747;29;20027;-86
2023/09/20 17:52:11;;;;;;;0.00;0.00;;;19.00;85.50;;;;;;4952522;29;20032;-80
2023/09/20 17:54:37;;;;;;;0.10;0.10;;;19.00;85.50;;;;;;4922300;29;20031;-81
2023/09/20 17:57:03;;;;;;;0.00;0.00;;;18.90;85.90;;;;;;4939652;29;20155;-80
2023/09/20 17:59:29;;;;;;;0.00;0.00;;;18.80;86.30;;;;;;4922750;29;20405;-82
2023/09/20 18:01:57;;;;;;;0.00;0.00;;;18.80;85.90;;;;;;4939362;29;20028;-85